Alexandria, MN (56308)

8:39 PM CDT on July 28, 2016 (GMT -0500)
Burgen Sunrise | | Change Station

Elev 1398 ft 45.86 °N, 95.35 °W | Updated 19 seconds ago

Mostly Cloudy
Mostly Cloudy
70.3 °F
Feels Like 73 °F
N
0.0
Wind Variable Wind from North
Gusts 0.0 mph

Today
High -- | Low -- °F
--% Chance of Precip.
Yesterday
High -- | Low -- °F
Precip. -- in
Pressure 30.06 in
Visibility 10.0 miles
Clouds Mostly Cloudy 8500 ft
Heat Index 73 °F
Dew Point 61 °F
Humidity 73%
Rainfall in
Snow Depth Not available.
6:00 AM 8:54 PM
Waning Crescent, 27% visible
METAR KAXN 290053Z AUTO 10005KT 10SM BKN085 22/13 A3007 RMK AO2 SLP180 T02220133
Pressure 30.06 in
Visibility 10.0 miles
Clouds Mostly Cloudy 8500 ft
Heat Index 73 °F
Dew Point 61 °F
Humidity 73%
Rainfall in
Snow Depth Not available.
6:00 AM 8:54 PM
Waning Crescent, 27% visible
METAR KAXN 290053Z AUTO 10005KT 10SM BKN085 22/13 A3007 RMK AO2 SLP180 T02220133

10-Day Weather Forecast

Almanac

Astronomy

Jul. 28, 2016 Rise Set
Actual Time
Civil Twilight
Nautical Twilight
Astronomical Twilight
Moon
Length of Visible Light
Length of Day
Tomorrow will be .
, % of the Moon is Illuminated

Today's Extremes

State Highs State Lows

Community

WunderPhotos

Upload Photos

1,928,251 photos uploaded!

WunderBlog® & News

Nearby

Air Quality

  Air Quality AQ Index Pollutant
Not available.

Snow Depth

Station Depth Elevation

Earthquake Activity

City Distance Mag. Time & Date
Minimum magnitude displayed is 2.5.

Coastal Water Temperatures

Place Temperature

Stations

Nearby Weather Stations

Station Location Temp. Windchill Dew Point Humidity Wind Precip. Elev Updated Type
                   

Watches & Warnings

There are currently no watches in effect.